createdAt,value
2019-03-10T00:00:43.851Z,98940.95
2019-03-10T00:06:48.551Z,98937.37
2019-03-10T00:12:53.261Z,98928.73
2019-03-10T00:18:57.829Z,98934.69
2019-03-10T00:25:02.532Z,98927.55
2019-03-10T00:31:07.215Z,98939.95
2019-03-10T00:37:12.090Z,98931.02
2019-03-10T00:43:42.716Z,98934.15
2019-03-10T00:50:03.914Z,98925.17
2019-03-10T00:56:08.555Z,98916.76
2019-03-10T01:02:13.502Z,98913.52
2019-03-10T01:08:18.192Z,98906.00
2019-03-10T01:14:22.886Z,98900.01
2019-03-10T01:20:27.892Z,98906.21
2019-03-10T01:26:32.646Z,98890.78
2019-03-10T01:32:44.941Z,98904.27
2019-03-10T01:38:49.632Z,98884.78
2019-03-10T01:44:54.354Z,98884.06
2019-03-10T01:50:58.901Z,98882.36
2019-03-10T01:57:03.505Z,98878.70
2019-03-10T02:03:08.231Z,98868.66
2019-03-10T02:09:12.945Z,98852.09
2019-03-10T02:15:18.033Z,98836.98
2019-03-10T02:21:22.757Z,98836.02
2019-03-10T02:27:27.457Z,98818.85
2019-03-10T02:33:32.203Z,98802.47
2019-03-10T02:39:36.859Z,98798.30
2019-03-10T02:45:41.885Z,98798.80
2019-03-10T02:51:46.898Z,98798.03
2019-03-10T02:57:52.035Z,98781.84
2019-03-10T03:03:56.786Z,98778.47
2019-03-10T03:10:01.940Z,98768.50
2019-03-10T03:16:06.860Z,98754.30
2019-03-10T03:22:11.576Z,98737.83
2019-03-10T03:28:17.740Z,98734.61
2019-03-10T03:34:22.672Z,98727.95
2019-03-10T03:40:27.598Z,98718.38
2019-03-10T03:46:32.393Z,98720.86
2019-03-10T03:52:37.577Z,98709.34
2019-03-10T03:58:43.486Z,98693.62
2019-03-10T04:04:48.826Z,98675.30
2019-03-10T04:10:53.437Z,98660.46
2019-03-10T04:16:58.074Z,98650.09
2019-03-10T04:23:02.709Z,98632.95
2019-03-10T04:29:07.323Z,98622.21
2019-03-10T04:35:12.127Z,98598.87
2019-03-10T04:41:17.384Z,98595.69
2019-03-10T04:47:21.935Z,98576.01
2019-03-10T04:53:26.891Z,98567.42
2019-03-10T04:59:31.528Z,98551.87
2019-03-10T05:05:36.219Z,98542.41
2019-03-10T05:11:40.862Z,98541.48
2019-03-10T05:17:45.859Z,98526.97
2019-03-10T05:23:50.801Z,98515.08
2019-03-10T05:29:55.618Z,98498.50
2019-03-10T05:36:00.355Z,98496.76
2019-03-10T05:42:05.094Z,98484.41
2019-03-10T05:48:09.970Z,98473.00
2019-03-10T05:54:15.154Z,98467.74
2019-03-10T06:00:19.800Z,98456.88
2019-03-10T06:06:24.757Z,98450.86
2019-03-10T06:12:29.331Z,98438.11
2019-03-10T06:18:34.089Z,98425.61
2019-03-10T06:24:38.957Z,98412.16
2019-03-10T06:30:43.652Z,98401.73
2019-03-10T06:36:48.541Z,98396.82
2019-03-10T06:42:53.092Z,98378.18
2019-03-10T06:48:57.650Z,98367.52
2019-03-10T06:55:02.202Z,98355.03
2019-03-10T07:01:06.817Z,98330.41
2019-03-10T07:07:11.359Z,98331.28
2019-03-10T07:13:16.174Z,98317.31
2019-03-10T07:19:21.480Z,98319.50
2019-03-10T07:25:26.098Z,98287.70
2019-03-10T07:31:32.385Z,98271.70
2019-03-10T07:37:45.159Z,98260.23
2019-03-10T07:43:55.324Z,98255.56
2019-03-10T07:50:01.591Z,98246.36
2019-03-10T07:56:19.607Z,98230.77
2019-03-10T08:02:25.805Z,98202.70
2019-03-10T08:08:32.041Z,98203.63
2019-03-10T08:14:42.065Z,98206.92
2019-03-10T08:21:04.859Z,98178.11
2019-03-10T08:27:16.945Z,98172.78
2019-03-10T08:33:40.039Z,98144.99
2019-03-10T08:39:55.258Z,98145.38
2019-03-10T08:46:16.838Z,98133.83
2019-03-10T08:52:35.161Z,98107.41
2019-03-10T08:58:44.068Z,98086.14
2019-03-10T09:04:53.096Z,98073.53
2019-03-10T09:11:04.731Z,98054.09
2019-03-10T09:17:11.025Z,98040.09
2019-03-10T09:23:20.345Z,98020.10
2019-03-10T09:29:32.084Z,98005.20
2019-03-10T09:35:38.521Z,97995.50
2019-03-10T09:41:44.965Z,97980.22
2019-03-10T09:48:07.290Z,97953.09
2019-03-10T09:54:31.796Z,97950.95
2019-03-10T10:00:51.469Z,97941.39
2019-03-10T10:07:06.455Z,97914.42
2019-03-10T10:13:26.450Z,97907.13
2019-03-10T10:19:30.904Z,97883.31
2019-03-10T10:25:37.136Z,97861.89
2019-03-10T10:31:59.577Z,97851.81
2019-03-10T10:38:22.214Z,97831.44
2019-03-10T10:44:28.500Z,97820.34
2019-03-10T10:50:34.683Z,97797.16
2019-03-10T10:56:40.982Z,97802.10
2019-03-10T11:02:50.306Z,97778.36
2019-03-10T11:09:03.099Z,97767.77
2019-03-10T11:15:11.575Z,97757.02
2019-03-10T11:21:17.908Z,97744.55
2019-03-10T11:27:29.937Z,97720.06
2019-03-10T11:33:40.255Z,97705.58
2019-03-10T11:39:46.610Z,97694.28
2019-03-10T11:45:58.680Z,97663.39
2019-03-10T11:52:11.070Z,97664.62
2019-03-10T11:58:33.942Z,97620.28
2019-03-10T12:04:49.230Z,97649.23
2019-03-10T12:10:53.977Z,97641.52
2019-03-10T12:16:58.630Z,97624.09
2019-03-10T12:23:03.206Z,97618.58
2019-03-10T12:29:07.784Z,97608.48
2019-03-10T12:35:12.500Z,97593.11
2019-03-10T12:41:18.164Z,97569.31
2019-03-10T12:47:22.786Z,97565.12
2019-03-10T12:53:27.418Z,97562.33
2019-03-10T12:59:32.130Z,97544.31
2019-03-10T13:05:36.848Z,97539.57
2019-03-10T13:11:41.479Z,97550.61
2019-03-10T13:17:47.055Z,97540.80
2019-03-10T13:23:51.828Z,97512.52
2019-03-10T13:29:56.449Z,97458.84
2019-03-10T13:36:01.090Z,97457.05
2019-03-10T13:42:05.736Z,97441.13
2019-03-10T13:48:10.520Z,97429.33
2019-03-10T13:54:15.709Z,97416.75
2019-03-10T14:00:26.636Z,97407.84
2019-03-10T14:06:31.203Z,97406.33
2019-03-10T14:12:35.886Z,97401.23
2019-03-10T14:18:40.438Z,97425.34
2019-03-10T14:24:45.414Z,97421.60
2019-03-10T14:30:50.397Z,97405.36
2019-03-10T14:36:55.198Z,97411.33
2019-03-10T14:42:59.829Z,97391.99
2019-03-10T14:49:05.359Z,97405.21
2019-03-10T14:55:14.981Z,97406.68
2019-03-10T15:01:22.263Z,97391.84
2019-03-10T15:07:26.817Z,97370.73
2019-03-10T15:13:31.626Z,97388.95
2019-03-10T15:19:36.368Z,97387.95
2019-03-10T15:25:41.286Z,97398.38
2019-03-10T15:31:46.267Z,97373.16
2019-03-10T15:37:51.096Z,97390.44
2019-03-10T15:43:55.796Z,97391.63
2019-03-10T15:50:00.392Z,97401.98
2019-03-10T15:56:05.189Z,97455.45
2019-03-10T16:02:09.823Z,97453.25
2019-03-10T16:08:14.723Z,97467.95
2019-03-10T16:14:21.103Z,97462.22
2019-03-10T16:20:25.841Z,97484.60
2019-03-10T16:26:30.571Z,97459.41
2019-03-10T16:32:35.210Z,97489.70
2019-03-10T16:38:39.829Z,97533.66
2019-03-10T16:44:44.603Z,97553.99
2019-03-10T16:50:49.594Z,97517.90
2019-03-10T16:56:54.315Z,97525.03
2019-03-10T17:02:58.868Z,97529.25
2019-03-10T17:09:06.591Z,97533.23
2019-03-10T17:15:15.376Z,97546.70
2019-03-10T17:21:20.749Z,97544.55
2019-03-10T17:27:25.526Z,97546.80
2019-03-10T17:33:30.069Z,97553.23
2019-03-10T17:39:34.641Z,97551.03
2019-03-10T17:45:39.507Z,97580.59
2019-03-10T17:51:44.211Z,97577.89
2019-03-10T17:57:49.224Z,97623.64
2019-03-10T18:03:53.939Z,97654.77
2019-03-10T18:09:58.602Z,97723.46
2019-03-10T18:16:03.223Z,97784.09
2019-03-10T18:22:08.030Z,97897.76
2019-03-10T18:28:12.748Z,98018.22
2019-03-10T18:34:18.350Z,98107.11
2019-03-10T18:40:27.172Z,98171.90
2019-03-10T18:46:31.762Z,98240.61
2019-03-10T18:52:36.313Z,98305.26
2019-03-10T18:58:41.163Z,98343.08
2019-03-10T19:04:46.281Z,98382.31
2019-03-10T19:10:51.154Z,98401.16
2019-03-10T19:16:55.785Z,98431.66
2019-03-10T19:23:00.461Z,98456.59
2019-03-10T19:29:05.231Z,98467.84
2019-03-10T19:35:11.721Z,98485.36
2019-03-10T19:41:18.071Z,98509.65
2019-03-10T19:47:22.789Z,98527.31
2019-03-10T19:53:27.374Z,98536.41
2019-03-10T19:59:31.988Z,98549.45
2019-03-10T20:05:36.595Z,98563.52
2019-03-10T20:11:41.363Z,98566.31
2019-03-10T20:17:47.017Z,98577.71
2019-03-10T20:23:51.913Z,98582.53
2019-03-10T20:29:56.507Z,98584.05
2019-03-10T20:36:01.251Z,98601.06
2019-03-10T20:42:06.195Z,98624.19
2019-03-10T20:48:10.810Z,98642.06
2019-03-10T20:54:15.781Z,98661.91
2019-03-10T21:00:23.678Z,98673.16
2019-03-10T21:06:28.511Z,98691.83
2019-03-10T21:12:39.989Z,98704.76
2019-03-10T21:18:39.972Z,98713.72
2019-03-10T21:24:44.810Z,98722.95
2019-03-10T21:30:49.803Z,98734.03
2019-03-10T21:36:54.538Z,98736.58
2019-03-10T21:42:59.108Z,98744.34
2019-03-10T21:49:03.859Z,98759.11
2019-03-10T21:55:13.583Z,98765.54
2019-03-10T22:01:18.637Z,98779.77
2019-03-10T22:07:23.206Z,98777.95
2019-03-10T22:13:27.998Z,98780.67
2019-03-10T22:19:33.012Z,98779.10
2019-03-10T22:25:37.675Z,98787.08
2019-03-10T22:31:42.677Z,98782.25
2019-03-10T22:37:48.015Z,98794.02
2019-03-10T22:43:53.175Z,98804.80
2019-03-10T22:49:57.893Z,98822.52
2019-03-10T22:56:02.475Z,98825.92
2019-03-10T23:02:07.406Z,98836.73
2019-03-10T23:08:12.139Z,98832.30
2019-03-10T23:14:18.189Z,98839.44
2019-03-10T23:20:22.920Z,98845.05
2019-03-10T23:26:27.713Z,98847.90
2019-03-10T23:32:32.447Z,98862.59
2019-03-10T23:38:37.059Z,98858.61
2019-03-10T23:44:41.766Z,98860.92
2019-03-10T23:50:46.867Z,98864.41
2019-03-10T23:56:51.656Z,98849.19
